sensor_id;sensor_type;location;lat;lon;timestamp;temperature;humidity
7564;DHT22;3823;53.586;10.040;2023-02-02T00:01:47;6.30;99.90
7564;DHT22;3823;53.586;10.040;2023-02-02T00:04:18;6.20;99.90
7564;DHT22;3823;53.586;10.040;2023-02-02T00:06:44;6.30;99.90
7564;DHT22;3823;53.586;10.040;2023-02-02T00:09:12;6.30;99.90
7564;DHT22;3823;53.586;10.040;2023-02-02T00:11:38;6.20;99.90
7564;DHT22;3823;53.586;10.040;2023-02-02T00:14:03;6.20;99.90
7564;DHT22;3823;53.586;10.040;2023-02-02T00:19:07;6.10;1.00
7564;DHT22;3823;53.586;10.040;2023-02-02T00:21:32;6.20;1.00
7564;DHT22;3823;53.586;10.040;2023-02-02T00:23:58;6.20;99.90
7564;DHT22;3823;53.586;10.040;2023-02-02T00:26:24;6.30;99.90
7564;DHT22;3823;53.586;10.040;2023-02-02T00:28:49;6.40;99.90
7564;DHT22;3823;53.586;10.040;2023-02-02T00:31:15;6.40;99.90
7564;DHT22;3823;53.586;10.040;2023-02-02T00:33:45;6.40;99.90
7564;DHT22;3823;53.586;10.040;2023-02-02T00:36:11;6.30;99.90
7564;DHT22;3823;53.586;10.040;2023-02-02T00:38:37;6.40;99.90
7564;DHT22;3823;53.586;10.040;2023-02-02T00:41:03;6.40;99.90
7564;DHT22;3823;53.586;10.040;2023-02-02T00:43:29;6.40;99.90
7564;DHT22;3823;53.586;10.040;2023-02-02T00:45:55;6.40;99.90
7564;DHT22;3823;53.586;10.040;2023-02-02T00:48:20;6.40;99.90
7564;DHT22;3823;53.586;10.040;2023-02-02T00:50:46;6.30;99.90
7564;DHT22;3823;53.586;10.040;2023-02-02T00:53:12;6.30;99.90
7564;DHT22;3823;53.586;10.040;2023-02-02T00:55:37;6.20;99.90
7564;DHT22;3823;53.586;10.040;2023-02-02T00:58:03;6.20;99.90
7564;DHT22;3823;53.586;10.040;2023-02-02T01:00:28;6.30;99.90
7564;DHT22;3823;53.586;10.040;2023-02-02T01:02:54;6.30;99.90
7564;DHT22;3823;53.586;10.040;2023-02-02T01:05:21;6.40;99.90
7564;DHT22;3823;53.586;10.040;2023-02-02T01:07:47;6.40;99.90
7564;DHT22;3823;53.586;10.040;2023-02-02T01:10:15;6.30;99.90
7564;DHT22;3823;53.586;10.040;2023-02-02T01:12:41;6.30;99.90
7564;DHT22;3823;53.586;10.040;2023-02-02T01:15:07;6.30;99.90
7564;DHT22;3823;53.586;10.040;2023-02-02T01:17:33;6.30;99.90
7564;DHT22;3823;53.586;10.040;2023-02-02T01:19:59;6.30;99.90
7564;DHT22;3823;53.586;10.040;2023-02-02T01:22:24;6.30;99.90
7564;DHT22;3823;53.586;10.040;2023-02-02T01:24:50;6.20;99.90
7564;DHT22;3823;53.586;10.040;2023-02-02T01:27:16;6.30;99.90
7564;DHT22;3823;53.586;10.040;2023-02-02T01:29:41;6.30;99.90
7564;DHT22;3823;53.586;10.040;2023-02-02T01:32:07;6.30;99.90
7564;DHT22;3823;53.586;10.040;2023-02-02T01:34:33;6.20;99.90
7564;DHT22;3823;53.586;10.040;2023-02-02T01:36:58;6.10;99.90
7564;DHT22;3823;53.586;10.040;2023-02-02T01:39:24;6.20;99.90
7564;DHT22;3823;53.586;10.040;2023-02-02T01:41:50;6.10;99.90
7564;DHT22;3823;53.586;10.040;2023-02-02T01:47:22;6.10;1.00
7564;DHT22;3823;53.586;10.040;2023-02-02T01:49:49;6.10;1.00
7564;DHT22;3823;53.586;10.040;2023-02-02T01:52:16;6.10;1.00
7564;DHT22;3823;53.586;10.040;2023-02-02T01:54:46;6.00;1.00
7564;DHT22;3823;53.586;10.040;2023-02-02T01:59:45;6.10;1.00
7564;DHT22;3823;53.586;10.040;2023-02-02T02:02:12;6.00;1.00
7564;DHT22;3823;53.586;10.040;2023-02-02T02:04:38;6.00;1.00
7564;DHT22;3823;53.586;10.040;2023-02-02T02:07:04;6.10;1.00
7564;DHT22;3823;53.586;10.040;2023-02-02T02:09:30;6.10;1.00
7564;DHT22;3823;53.586;10.040;2023-02-02T02:11:56;6.10;99.90
7564;DHT22;3823;53.586;10.040;2023-02-02T02:14:22;6.00;99.90
7564;DHT22;3823;53.586;10.040;2023-02-02T02:26:50;5.90;1.00
7564;DHT22;3823;53.586;10.040;2023-02-02T02:29:40;5.90;1.00
7564;DHT22;3823;53.586;10.040;2023-02-02T02:32:44;5.90;1.00
7564;DHT22;3823;53.586;10.040;2023-02-02T02:36:21;5.90;1.00
7564;DHT22;3823;53.586;10.040;2023-02-02T02:40:55;5.90;1.00
7564;DHT22;3823;53.586;10.040;2023-02-02T02:43:26;5.80;1.00
7564;DHT22;3823;53.586;10.040;2023-02-02T02:45:53;5.80;1.00
7564;DHT22;3823;53.586;10.040;2023-02-02T02:48:19;5.80;1.00
7564;DHT22;3823;53.586;10.040;2023-02-02T02:50:45;5.80;1.00
7564;DHT22;3823;53.586;10.040;2023-02-02T02:53:14;5.80;1.00
7564;DHT22;3823;53.586;10.040;2023-02-02T02:56:05;5.80;1.00
7564;DHT22;3823;53.586;10.040;2023-02-02T03:01:13;5.80;1.00
7564;DHT22;3823;53.586;10.040;2023-02-02T03:06:41;5.80;1.00
7564;DHT22;3823;53.586;10.040;2023-02-02T03:09:17;5.80;1.00
7564;DHT22;3823;53.586;10.040;2023-02-02T03:11:44;5.80;1.00
7564;DHT22;3823;53.586;10.040;2023-02-02T03:14:09;5.90;1.00
7564;DHT22;3823;53.586;10.040;2023-02-02T03:16:36;5.90;1.00
7564;DHT22;3823;53.586;10.040;2023-02-02T03:19:02;6.00;1.00
7564;DHT22;3823;53.586;10.040;2023-02-02T03:21:29;5.90;1.00
7564;DHT22;3823;53.586;10.040;2023-02-02T03:23:55;5.90;1.00
7564;DHT22;3823;53.586;10.040;2023-02-02T03:26:20;6.00;1.00
7564;DHT22;3823;53.586;10.040;2023-02-02T03:28:47;6.00;1.00
7564;DHT22;3823;53.586;10.040;2023-02-02T03:31:13;6.00;99.90
7564;DHT22;3823;53.586;10.040;2023-02-02T03:33:39;6.00;1.00
7564;DHT22;3823;53.586;10.040;2023-02-02T03:36:05;6.00;1.00
7564;DHT22;3823;53.586;10.040;2023-02-02T03:38:31;6.10;99.90
7564;DHT22;3823;53.586;10.040;2023-02-02T03:40:56;6.10;99.90
7564;DHT22;3823;53.586;10.040;2023-02-02T03:43:23;6.10;99.90
7564;DHT22;3823;53.586;10.040;2023-02-02T03:46:03;6.10;99.90
7564;DHT22;3823;53.586;10.040;2023-02-02T03:48:29;6.00;99.90
7564;DHT22;3823;53.586;10.040;2023-02-02T03:50:55;6.10;99.90
7564;DHT22;3823;53.586;10.040;2023-02-02T03:53:21;6.10;99.90
7564;DHT22;3823;53.586;10.040;2023-02-02T03:55:47;6.10;99.90
7564;DHT22;3823;53.586;10.040;2023-02-02T03:58:12;6.00;99.90
7564;DHT22;3823;53.586;10.040;2023-02-02T04:00:38;6.10;99.90
7564;DHT22;3823;53.586;10.040;2023-02-02T04:03:03;6.00;99.90
7564;DHT22;3823;53.586;10.040;2023-02-02T04:05:29;6.00;99.90
7564;DHT22;3823;53.586;10.040;2023-02-02T04:07:54;6.10;99.90
7564;DHT22;3823;53.586;10.040;2023-02-02T04:10:20;6.10;99.90
7564;DHT22;3823;53.586;10.040;2023-02-02T04:12:46;6.00;99.90
7564;DHT22;3823;53.586;10.040;2023-02-02T04:15:11;6.00;99.90
7564;DHT22;3823;53.586;10.040;2023-02-02T04:17:37;6.00;99.90
7564;DHT22;3823;53.586;10.040;2023-02-02T04:20:04;5.90;99.90
7564;DHT22;3823;53.586;10.040;2023-02-02T04:22:30;5.90;99.90
7564;DHT22;3823;53.586;10.040;2023-02-02T04:24:56;5.80;99.90
7564;DHT22;3823;53.586;10.040;2023-02-02T04:27:21;5.80;99.90
7564;DHT22;3823;53.586;10.040;2023-02-02T04:29:47;5.80;1.00
7564;DHT22;3823;53.586;10.040;2023-02-02T04:32:16;5.80;1.00
7564;DHT22;3823;53.586;10.040;2023-02-02T04:34:43;5.90;99.90
7564;DHT22;3823;53.586;10.040;2023-02-02T04:37:09;5.90;99.90
7564;DHT22;3823;53.586;10.040;2023-02-02T04:39:35;5.90;99.90
7564;DHT22;3823;53.586;10.040;2023-02-02T04:42:01;5.80;1.00
7564;DHT22;3823;53.586;10.040;2023-02-02T04:44:27;5.80;1.00
7564;DHT22;3823;53.586;10.040;2023-02-02T04:46:52;5.80;1.00
7564;DHT22;3823;53.586;10.040;2023-02-02T04:49:18;5.70;1.00
7564;DHT22;3823;53.586;10.040;2023-02-02T04:51:44;5.70;1.00
7564;DHT22;3823;53.586;10.040;2023-02-02T04:54:09;5.70;1.00
7564;DHT22;3823;53.586;10.040;2023-02-02T04:56:35;5.70;1.00
7564;DHT22;3823;53.586;10.040;2023-02-02T04:59:01;5.70;1.00
7564;DHT22;3823;53.586;10.040;2023-02-02T05:01:26;5.70;1.00
7564;DHT22;3823;53.586;10.040;2023-02-02T05:03:53;5.70;1.00
7564;DHT22;3823;53.586;10.040;2023-02-02T05:06:19;5.70;1.00
7564;DHT22;3823;53.586;10.040;2023-02-02T05:08:46;5.70;1.00
7564;DHT22;3823;53.586;10.040;2023-02-02T05:11:15;5.70;1.00
7564;DHT22;3823;53.586;10.040;2023-02-02T05:13:46;5.80;1.00
7564;DHT22;3823;53.586;10.040;2023-02-02T05:16:11;5.80;1.00
7564;DHT22;3823;53.586;10.040;2023-02-02T05:18:37;5.80;1.00
7564;DHT22;3823;53.586;10.040;2023-02-02T05:21:03;5.80;1.00
7564;DHT22;3823;53.586;10.040;2023-02-02T05:23:29;5.80;1.00
7564;DHT22;3823;53.586;10.040;2023-02-02T05:25:55;5.80;1.00
7564;DHT22;3823;53.586;10.040;2023-02-02T05:28:22;5.60;1.00
7564;DHT22;3823;53.586;10.040;2023-02-02T05:30:48;5.60;1.00
7564;DHT22;3823;53.586;10.040;2023-02-02T05:33:14;5.60;1.00
7564;DHT22;3823;53.586;10.040;2023-02-02T05:35:40;5.60;1.00
7564;DHT22;3823;53.586;10.040;2023-02-02T05:38:05;5.60;1.00
7564;DHT22;3823;53.586;10.040;2023-02-02T05:40:31;5.60;1.00
7564;DHT22;3823;53.586;10.040;2023-02-02T05:42:56;5.60;1.00
7564;DHT22;3823;53.586;10.040;2023-02-02T05:45:22;5.60;1.00
7564;DHT22;3823;53.586;10.040;2023-02-02T05:47:48;5.60;1.00
7564;DHT22;3823;53.586;10.040;2023-02-02T05:50:14;5.50;1.00
7564;DHT22;3823;53.586;10.040;2023-02-02T05:52:41;5.60;1.00
7564;DHT22;3823;53.586;10.040;2023-02-02T05:55:09;5.60;1.00
7564;DHT22;3823;53.586;10.040;2023-02-02T05:57:34;5.70;1.00
7564;DHT22;3823;53.586;10.040;2023-02-02T06:00:00;5.70;1.00
7564;DHT22;3823;53.586;10.040;2023-02-02T06:02:26;5.60;1.00
7564;DHT22;3823;53.586;10.040;2023-02-02T06:04:51;5.70;1.00
7564;DHT22;3823;53.586;10.040;2023-02-02T06:07:17;5.70;1.00
7564;DHT22;3823;53.586;10.040;2023-02-02T06:09:43;5.80;1.00
7564;DHT22;3823;53.586;10.040;2023-02-02T06:12:08;5.80;1.00
7564;DHT22;3823;53.586;10.040;2023-02-02T06:14:34;5.80;1.00
7564;DHT22;3823;53.586;10.040;2023-02-02T06:16:59;5.80;1.00
7564;DHT22;3823;53.586;10.040;2023-02-02T06:19:25;5.80;1.00
7564;DHT22;3823;53.586;10.040;2023-02-02T06:21:51;5.80;1.00
7564;DHT22;3823;53.586;10.040;2023-02-02T06:24:16;5.80;1.00
7564;DHT22;3823;53.586;10.040;2023-02-02T06:26:42;5.90;1.00
7564;DHT22;3823;53.586;10.040;2023-02-02T06:29:11;5.90;1.00
7564;DHT22;3823;53.586;10.040;2023-02-02T06:31:37;5.80;1.00
7564;DHT22;3823;53.586;10.040;2023-02-02T06:34:02;5.80;1.00
7564;DHT22;3823;53.586;10.040;2023-02-02T06:36:28;5.90;1.00
7564;DHT22;3823;53.586;10.040;2023-02-02T06:38:55;5.90;1.00
7564;DHT22;3823;53.586;10.040;2023-02-02T06:41:21;5.80;1.00
7564;DHT22;3823;53.586;10.040;2023-02-02T06:43:48;5.90;1.00
7564;DHT22;3823;53.586;10.040;2023-02-02T06:46:14;5.80;1.00
7564;DHT22;3823;53.586;10.040;2023-02-02T06:48:40;5.90;1.00
7564;DHT22;3823;53.586;10.040;2023-02-02T06:51:06;5.80;1.00
7564;DHT22;3823;53.586;10.040;2023-02-02T06:53:32;5.90;1.00
7564;DHT22;3823;53.586;10.040;2023-02-02T06:56:00;5.90;1.00
7564;DHT22;3823;53.586;10.040;2023-02-02T06:58:27;5.90;1.00
7564;DHT22;3823;53.586;10.040;2023-02-02T07:00:53;5.90;1.00
7564;DHT22;3823;53.586;10.040;2023-02-02T07:03:20;5.90;1.00
7564;DHT22;3823;53.586;10.040;2023-02-02T07:05:46;5.80;1.00
7564;DHT22;3823;53.586;10.040;2023-02-02T07:08:12;5.70;1.00
7564;DHT22;3823;53.586;10.040;2023-02-02T07:10:38;5.80;1.00
7564;DHT22;3823;53.586;10.040;2023-02-02T07:13:04;5.70;1.00
7564;DHT22;3823;53.586;10.040;2023-02-02T07:15:34;5.80;1.00
7564;DHT22;3823;53.586;10.040;2023-02-02T07:18:02;5.80;1.00
7564;DHT22;3823;53.586;10.040;2023-02-02T07:20:27;5.90;1.00
7564;DHT22;3823;53.586;10.040;2023-02-02T07:22:53;5.80;1.00
7564;DHT22;3823;53.586;10.040;2023-02-02T07:25:19;5.90;1.00
7564;DHT22;3823;53.586;10.040;2023-02-02T07:27:44;5.80;1.00
7564;DHT22;3823;53.586;10.040;2023-02-02T07:30:12;6.00;1.00
7564;DHT22;3823;53.586;10.040;2023-02-02T07:32:38;6.40;99.90
7564;DHT22;3823;53.586;10.040;2023-02-02T07:35:04;6.90;99.90
7564;DHT22;3823;53.586;10.040;2023-02-02T07:37:29;7.40;99.90
7564;DHT22;3823;53.586;10.040;2023-02-02T07:39:55;7.70;99.90
7564;DHT22;3823;53.586;10.040;2023-02-02T07:42:20;7.70;99.90
7564;DHT22;3823;53.586;10.040;2023-02-02T07:44:46;7.90;99.90
7564;DHT22;3823;53.586;10.040;2023-02-02T07:47:12;8.20;99.90
7564;DHT22;3823;53.586;10.040;2023-02-02T07:49:37;8.30;99.90
7564;DHT22;3823;53.586;10.040;2023-02-02T07:52:03;8.60;56.10
7564;DHT22;3823;53.586;10.040;2023-02-02T07:54:28;9.00;1.00
7564;DHT22;3823;53.586;10.040;2023-02-02T07:56:56;9.30;1.00
7564;DHT22;3823;53.586;10.040;2023-02-02T07:59:22;9.60;1.00
7564;DHT22;3823;53.586;10.040;2023-02-02T08:01:48;9.20;1.00
7564;DHT22;3823;53.586;10.040;2023-02-02T08:04:14;8.60;1.00
7564;DHT22;3823;53.586;10.040;2023-02-02T08:06:40;8.10;59.70
7564;DHT22;3823;53.586;10.040;2023-02-02T08:09:07;7.70;99.90
7564;DHT22;3823;53.586;10.040;2023-02-02T08:11:35;7.40;99.90
7564;DHT22;3823;53.586;10.040;2023-02-02T08:14:02;7.20;99.90
7564;DHT22;3823;53.586;10.040;2023-02-02T08:16:29;7.00;99.90
7564;DHT22;3823;53.586;10.040;2023-02-02T08:18:55;7.30;99.90
7564;DHT22;3823;53.586;10.040;2023-02-02T08:21:21;7.70;99.90
7564;DHT22;3823;53.586;10.040;2023-02-02T08:23:46;8.00;99.90
7564;DHT22;3823;53.586;10.040;2023-02-02T08:26:20;8.30;99.90
7564;DHT22;3823;53.586;10.040;2023-02-02T08:28:50;8.30;99.90
7564;DHT22;3823;53.586;10.040;2023-02-02T08:31:19;8.30;99.90
7564;DHT22;3823;53.586;10.040;2023-02-02T08:33:46;8.40;99.40
7564;DHT22;3823;53.586;10.040;2023-02-02T08:36:17;8.70;71.50
7564;DHT22;3823;53.586;10.040;2023-02-02T08:38:43;8.80;33.40
7564;DHT22;3823;53.586;10.040;2023-02-02T08:41:11;8.70;2.80
7564;DHT22;3823;53.586;10.040;2023-02-02T08:43:38;8.80;40.90
7564;DHT22;3823;53.586;10.040;2023-02-02T08:46:04;9.10;1.00
7564;DHT22;3823;53.586;10.040;2023-02-02T08:48:30;9.40;1.00
7564;DHT22;3823;53.586;10.040;2023-02-02T08:50:57;9.70;1.00
7564;DHT22;3823;53.586;10.040;2023-02-02T08:53:24;9.90;1.00
7564;DHT22;3823;53.586;10.040;2023-02-02T08:56:00;10.20;1.00
7564;DHT22;3823;53.586;10.040;2023-02-02T08:58:26;10.40;1.00
7564;DHT22;3823;53.586;10.040;2023-02-02T09:00:52;10.60;1.00
7564;DHT22;3823;53.586;10.040;2023-02-02T09:03:17;10.70;1.00
7564;DHT22;3823;53.586;10.040;2023-02-02T09:05:43;10.80;1.00
7564;DHT22;3823;53.586;10.040;2023-02-02T09:08:09;10.90;1.00
7564;DHT22;3823;53.586;10.040;2023-02-02T09:10:35;11.00;1.00
7564;DHT22;3823;53.586;10.040;2023-02-02T09:13:01;10.90;1.00
7564;DHT22;3823;53.586;10.040;2023-02-02T09:15:27;10.80;1.00
7564;DHT22;3823;53.586;10.040;2023-02-02T09:17:52;10.40;1.00
7564;DHT22;3823;53.586;10.040;2023-02-02T09:20:18;9.80;1.00
7564;DHT22;3823;53.586;10.040;2023-02-02T09:22:44;9.50;1.00
7564;DHT22;3823;53.586;10.040;2023-02-02T09:25:09;9.60;1.00
7564;DHT22;3823;53.586;10.040;2023-02-02T09:27:38;9.90;1.00
7564;DHT22;3823;53.586;10.040;2023-02-02T09:30:06;10.30;1.00
7564;DHT22;3823;53.586;10.040;2023-02-02T09:32:32;10.60;1.00
7564;DHT22;3823;53.586;10.040;2023-02-02T09:34:57;10.70;1.00
7564;DHT22;3823;53.586;10.040;2023-02-02T09:37:25;10.90;1.00
7564;DHT22;3823;53.586;10.040;2023-02-02T09:39:50;11.20;1.00
7564;DHT22;3823;53.586;10.040;2023-02-02T09:48:19;11.80;1.00
7564;DHT22;3823;53.586;10.040;2023-02-02T09:50:57;12.00;1.00
7564;DHT22;3823;53.586;10.040;2023-02-02T09:56:51;12.10;1.00
7564;DHT22;3823;53.586;10.040;2023-02-02T09:59:22;12.10;1.00
7564;DHT22;3823;53.586;10.040;2023-02-02T10:01:52;12.20;1.00
7564;DHT22;3823;53.586;10.040;2023-02-02T10:04:28;12.10;1.00
7564;DHT22;3823;53.586;10.040;2023-02-02T10:06:59;12.20;1.00
7564;DHT22;3823;53.586;10.040;2023-02-02T10:09:47;12.40;1.00
7564;DHT22;3823;53.586;10.040;2023-02-02T10:12:32;12.40;1.00
7564;DHT22;3823;53.586;10.040;2023-02-02T10:20:42;12.30;1.00
7564;DHT22;3823;53.586;10.040;2023-02-02T10:23:37;12.40;1.00
7564;DHT22;3823;53.586;10.040;2023-02-02T10:26:20;12.40;1.00
7564;DHT22;3823;53.586;10.040;2023-02-02T10:37:34;12.80;1.00
7564;DHT22;3823;53.586;10.040;2023-02-02T10:49:21;12.20;1.00
7564;DHT22;3823;53.586;10.040;2023-02-02T10:52:17;11.80;1.00
7564;DHT22;3823;53.586;10.040;2023-02-02T10:54:46;11.80;1.00
7564;DHT22;3823;53.586;10.040;2023-02-02T10:57:17;11.80;1.00
7564;DHT22;3823;53.586;10.040;2023-02-02T11:00:02;12.10;1.00
7564;DHT22;3823;53.586;10.040;2023-02-02T11:02:30;12.10;1.00
7564;DHT22;3823;53.586;10.040;2023-02-02T11:04:56;12.00;1.00
7564;DHT22;3823;53.586;10.040;2023-02-02T11:07:40;12.20;1.00
7564;DHT22;3823;53.586;10.040;2023-02-02T11:10:06;12.10;1.00
7564;DHT22;3823;53.586;10.040;2023-02-02T11:12:44;11.70;1.00
7564;DHT22;3823;53.586;10.040;2023-02-02T11:15:26;11.50;1.00
7564;DHT22;3823;53.586;10.040;2023-02-02T11:17:52;11.50;1.00
7564;DHT22;3823;53.586;10.040;2023-02-02T11:20:33;11.50;1.00
7564;DHT22;3823;53.586;10.040;2023-02-02T11:23:01;11.50;1.00
7564;DHT22;3823;53.586;10.040;2023-02-02T11:25:33;11.50;1.00
7564;DHT22;3823;53.586;10.040;2023-02-02T11:28:09;11.50;1.00
7564;DHT22;3823;53.586;10.040;2023-02-02T11:30:37;11.50;1.00
7564;DHT22;3823;53.586;10.040;2023-02-02T11:33:26;11.40;1.00
7564;DHT22;3823;53.586;10.040;2023-02-02T11:36:17;11.40;1.00
7564;DHT22;3823;53.586;10.040;2023-02-02T11:38:43;11.20;1.00
7564;DHT22;3823;53.586;10.040;2023-02-02T11:41:09;11.00;1.00
7564;DHT22;3823;53.586;10.040;2023-02-02T11:43:46;11.00;1.00
7564;DHT22;3823;53.586;10.040;2023-02-02T11:46:27;10.90;1.00
7564;DHT22;3823;53.586;10.040;2023-02-02T11:51:23;10.80;1.00
7564;DHT22;3823;53.586;10.040;2023-02-02T11:54:04;10.80;1.00
7564;DHT22;3823;53.586;10.040;2023-02-02T11:56:31;10.80;1.00
7564;DHT22;3823;53.586;10.040;2023-02-02T11:58:59;10.90;1.00
7564;DHT22;3823;53.586;10.040;2023-02-02T12:01:36;10.90;1.00
7564;DHT22;3823;53.586;10.040;2023-02-02T12:06:40;10.80;1.00
7564;DHT22;3823;53.586;10.040;2023-02-02T12:09:17;10.90;1.00
7564;DHT22;3823;53.586;10.040;2023-02-02T12:12:02;10.90;1.00
7564;DHT22;3823;53.586;10.040;2023-02-02T12:17:33;10.90;1.00
7564;DHT22;3823;53.586;10.040;2023-02-02T12:31:17;10.80;1.00
7564;DHT22;3823;53.586;10.040;2023-02-02T12:36:46;10.90;1.00
7564;DHT22;3823;53.586;10.040;2023-02-02T12:42:27;11.10;1.00
7564;DHT22;3823;53.586;10.040;2023-02-02T13:02:33;10.90;1.00
7564;DHT22;3823;53.586;10.040;2023-02-02T13:05:18;10.80;1.00
7564;DHT22;3823;53.586;10.040;2023-02-02T13:07:55;10.70;1.00
7564;DHT22;3823;53.586;10.040;2023-02-02T13:10:30;10.60;1.00
7564;DHT22;3823;53.586;10.040;2023-02-02T13:13:02;10.50;1.00
7564;DHT22;3823;53.586;10.040;2023-02-02T13:15:34;10.40;1.00
7564;DHT22;3823;53.586;10.040;2023-02-02T13:18:26;10.30;1.00
7564;DHT22;3823;53.586;10.040;2023-02-02T13:20:53;10.30;1.00
7564;DHT22;3823;53.586;10.040;2023-02-02T13:23:24;10.30;1.00
7564;DHT22;3823;53.586;10.040;2023-02-02T13:30:56;10.60;1.00
7564;DHT22;3823;53.586;10.040;2023-02-02T13:33:29;10.60;1.00
7564;DHT22;3823;53.586;10.040;2023-02-02T13:36:01;10.60;1.00
7564;DHT22;3823;53.586;10.040;2023-02-02T13:38:29;10.60;1.00
7564;DHT22;3823;53.586;10.040;2023-02-02T13:40:58;10.60;1.00
7564;DHT22;3823;53.586;10.040;2023-02-02T13:43:37;10.60;1.00
7564;DHT22;3823;53.586;10.040;2023-02-02T13:46:35;10.60;1.00
7564;DHT22;3823;53.586;10.040;2023-02-02T13:51:50;10.80;1.00
7564;DHT22;3823;53.586;10.040;2023-02-02T14:02:43;11.00;1.00
7564;DHT22;3823;53.586;10.040;2023-02-02T14:05:29;11.00;1.00
7564;DHT22;3823;53.586;10.040;2023-02-02T14:13:16;11.00;1.00
7564;DHT22;3823;53.586;10.040;2023-02-02T14:16:07;11.00;1.00
7564;DHT22;3823;53.586;10.040;2023-02-02T14:26:44;10.90;1.00
7564;DHT22;3823;53.586;10.040;2023-02-02T14:43:02;10.40;1.00
7564;DHT22;3823;53.586;10.040;2023-02-02T14:48:47;10.20;1.00
7564;DHT22;3823;53.586;10.040;2023-02-02T14:51:42;10.10;1.00
7564;DHT22;3823;53.586;10.040;2023-02-02T14:54:24;10.10;1.00
7564;DHT22;3823;53.586;10.040;2023-02-02T14:56:58;10.10;1.00
7564;DHT22;3823;53.586;10.040;2023-02-02T14:59:44;10.00;1.00
7564;DHT22;3823;53.586;10.040;2023-02-02T15:02:33;9.90;1.00
7564;DHT22;3823;53.586;10.040;2023-02-02T15:08:24;9.90;1.00
7564;DHT22;3823;53.586;10.040;2023-02-02T15:13:19;9.80;1.00
7564;DHT22;3823;53.586;10.040;2023-02-02T15:15:48;9.80;1.00
7564;DHT22;3823;53.586;10.040;2023-02-02T15:18:25;9.70;1.00
7564;DHT22;3823;53.586;10.040;2023-02-02T15:20:55;9.70;1.00
7564;DHT22;3823;53.586;10.040;2023-02-02T15:23:33;9.70;1.00
7564;DHT22;3823;53.586;10.040;2023-02-02T15:26:16;9.70;1.00
7564;DHT22;3823;53.586;10.040;2023-02-02T15:28:52;9.70;1.00
7564;DHT22;3823;53.586;10.040;2023-02-02T15:31:31;9.70;1.00
7564;DHT22;3823;53.586;10.040;2023-02-02T15:37:24;9.60;1.00
7564;DHT22;3823;53.586;10.040;2023-02-02T15:39:53;9.50;1.00
7564;DHT22;3823;53.586;10.040;2023-02-02T15:47:57;9.30;1.00
7564;DHT22;3823;53.586;10.040;2023-02-02T15:50:23;9.30;1.00
7564;DHT22;3823;53.586;10.040;2023-02-02T15:52:50;9.30;1.00
7564;DHT22;3823;53.586;10.040;2023-02-02T15:57:47;9.20;1.00
7564;DHT22;3823;53.586;10.040;2023-02-02T16:00:28;9.20;1.00
7564;DHT22;3823;53.586;10.040;2023-02-02T16:03:03;9.20;1.00
7564;DHT22;3823;53.586;10.040;2023-02-02T16:08:04;9.10;1.00
7564;DHT22;3823;53.586;10.040;2023-02-02T16:10:31;9.10;1.00
7564;DHT22;3823;53.586;10.040;2023-02-02T16:12:57;9.10;1.00
7564;DHT22;3823;53.586;10.040;2023-02-02T16:15:27;9.10;1.00
7564;DHT22;3823;53.586;10.040;2023-02-02T16:18:01;9.10;1.00
7564;DHT22;3823;53.586;10.040;2023-02-02T16:20:33;9.00;1.00
7564;DHT22;3823;53.586;10.040;2023-02-02T16:23:01;9.00;1.00
7564;DHT22;3823;53.586;10.040;2023-02-02T16:25:31;9.00;1.00
7564;DHT22;3823;53.586;10.040;2023-02-02T16:27:58;9.00;1.00
7564;DHT22;3823;53.586;10.040;2023-02-02T16:30:32;8.90;1.00
7564;DHT22;3823;53.586;10.040;2023-02-02T16:36:23;8.90;1.00
7564;DHT22;3823;53.586;10.040;2023-02-02T16:38:50;8.90;1.00
7564;DHT22;3823;53.586;10.040;2023-02-02T16:41:29;8.90;1.00
7564;DHT22;3823;53.586;10.040;2023-02-02T16:44:30;8.80;1.00
7564;DHT22;3823;53.586;10.040;2023-02-02T16:46:56;8.80;1.00
7564;DHT22;3823;53.586;10.040;2023-02-02T16:49:24;8.80;1.00
7564;DHT22;3823;53.586;10.040;2023-02-02T16:52:13;8.70;1.00
7564;DHT22;3823;53.586;10.040;2023-02-02T16:54:42;8.70;1.00
7564;DHT22;3823;53.586;10.040;2023-02-02T16:57:24;8.70;1.00
7564;DHT22;3823;53.586;10.040;2023-02-02T16:59:54;8.80;1.00
7564;DHT22;3823;53.586;10.040;2023-02-02T17:02:40;8.70;1.00
7564;DHT22;3823;53.586;10.040;2023-02-02T17:05:26;8.80;1.00
7564;DHT22;3823;53.586;10.040;2023-02-02T17:07:57;8.70;1.00
7564;DHT22;3823;53.586;10.040;2023-02-02T17:10:27;8.80;1.00
7564;DHT22;3823;53.586;10.040;2023-02-02T17:12:58;8.70;1.00
7564;DHT22;3823;53.586;10.040;2023-02-02T17:17:53;8.70;1.00
7564;DHT22;3823;53.586;10.040;2023-02-02T17:20:19;8.60;1.00
7564;DHT22;3823;53.586;10.040;2023-02-02T17:22:51;8.60;1.00
7564;DHT22;3823;53.586;10.040;2023-02-02T17:25:46;8.60;1.00
7564;DHT22;3823;53.586;10.040;2023-02-02T17:28:19;8.50;1.00
7564;DHT22;3823;53.586;10.040;2023-02-02T17:30:48;8.40;1.00
7564;DHT22;3823;53.586;10.040;2023-02-02T17:33:17;8.30;1.00
7564;DHT22;3823;53.586;10.040;2023-02-02T17:35:44;8.30;1.00
7564;DHT22;3823;53.586;10.040;2023-02-02T17:38:11;8.30;1.00
7564;DHT22;3823;53.586;10.040;2023-02-02T17:40:37;8.30;1.00
7564;DHT22;3823;53.586;10.040;2023-02-02T17:43:04;8.40;1.00
7564;DHT22;3823;53.586;10.040;2023-02-02T17:45:33;8.30;1.00
7564;DHT22;3823;53.586;10.040;2023-02-02T17:48:00;8.30;1.00
7564;DHT22;3823;53.586;10.040;2023-02-02T17:50:26;8.20;1.00
7564;DHT22;3823;53.586;10.040;2023-02-02T17:52:52;8.20;1.00
7564;DHT22;3823;53.586;10.040;2023-02-02T17:55:23;8.20;1.00
7564;DHT22;3823;53.586;10.040;2023-02-02T17:57:50;8.20;1.00
7564;DHT22;3823;53.586;10.040;2023-02-02T18:00:17;8.20;1.00
7564;DHT22;3823;53.586;10.040;2023-02-02T18:02:43;8.30;1.00
7564;DHT22;3823;53.586;10.040;2023-02-02T18:05:10;8.30;1.00
7564;DHT22;3823;53.586;10.040;2023-02-02T18:07:36;8.30;1.00
7564;DHT22;3823;53.586;10.040;2023-02-02T18:10:03;8.30;1.00
7564;DHT22;3823;53.586;10.040;2023-02-02T18:12:29;8.30;1.00
7564;DHT22;3823;53.586;10.040;2023-02-02T18:14:55;8.20;1.00
7564;DHT22;3823;53.586;10.040;2023-02-02T18:17:20;8.20;1.00
7564;DHT22;3823;53.586;10.040;2023-02-02T18:19:47;8.20;1.00
7564;DHT22;3823;53.586;10.040;2023-02-02T18:22:16;8.20;1.00
7564;DHT22;3823;53.586;10.040;2023-02-02T18:24:41;8.20;1.00
7564;DHT22;3823;53.586;10.040;2023-02-02T18:27:07;8.20;1.00
7564;DHT22;3823;53.586;10.040;2023-02-02T18:29:33;8.10;1.00
7564;DHT22;3823;53.586;10.040;2023-02-02T18:31:59;8.20;1.00
7564;DHT22;3823;53.586;10.040;2023-02-02T18:34:30;8.10;1.00
7564;DHT22;3823;53.586;10.040;2023-02-02T18:36:55;8.20;1.00
7564;DHT22;3823;53.586;10.040;2023-02-02T18:39:21;8.10;1.00
7564;DHT22;3823;53.586;10.040;2023-02-02T18:41:47;8.10;1.00
7564;DHT22;3823;53.586;10.040;2023-02-02T18:44:12;7.90;1.00
7564;DHT22;3823;53.586;10.040;2023-02-02T18:46:38;7.90;1.00
7564;DHT22;3823;53.586;10.040;2023-02-02T18:49:04;8.00;1.00
7564;DHT22;3823;53.586;10.040;2023-02-02T18:51:29;8.00;1.00
7564;DHT22;3823;53.586;10.040;2023-02-02T18:53:55;8.00;1.00
7564;DHT22;3823;53.586;10.040;2023-02-02T18:56:25;8.00;1.00
7564;DHT22;3823;53.586;10.040;2023-02-02T18:58:52;8.00;1.00
7564;DHT22;3823;53.586;10.040;2023-02-02T19:01:18;7.90;1.00
7564;DHT22;3823;53.586;10.040;2023-02-02T19:03:49;7.90;1.00
7564;DHT22;3823;53.586;10.040;2023-02-02T19:06:15;7.80;1.00
7564;DHT22;3823;53.586;10.040;2023-02-02T19:09:00;7.70;1.00
7564;DHT22;3823;53.586;10.040;2023-02-02T19:11:41;7.60;1.00
7564;DHT22;3823;53.586;10.040;2023-02-02T19:14:15;7.50;1.00
7564;DHT22;3823;53.586;10.040;2023-02-02T19:16:46;7.50;1.00
7564;DHT22;3823;53.586;10.040;2023-02-02T19:19:22;7.50;1.00